Time;durP1;ratioP1;P1;durP2;ratioP2;P2;SDS_P1;SDS_P2;PMS_P1;PMS_P2;Temp;Humidity;BMP_temperature;BMP_pressure;BME280_temperature;BME280_humidity;BME280_pressure;Samples;Min_cycle;Max_cycle;Signal;HPM_P1;HPM_P2
2021/03/10 00:00:18;;;;;;;18.85;10.57;;;;;;;7.96;55.98;101805.91;4930829;28;119990;-74
2021/03/10 00:02:45;;;;;;;15.68;11.13;;;;;;;7.90;55.98;101805.16;4913749;28;123087;-74
2021/03/10 00:05:12;;;;;;;17.40;11.13;;;;;;;7.85;55.94;101809.66;4927187;28;123388;-74
2021/03/10 00:07:40;;;;;;;17.42;11.48;;;;;;;7.79;55.91;101818.53;4928408;28;119745;-74
2021/03/10 00:10:08;;;;;;;17.98;10.77;;;;;;;7.75;56.40;101816.84;4913565;28;119204;-74
2021/03/10 00:12:35;;;;;;;18.55;11.52;;;;;;;7.73;56.26;101823.94;4912801;28;123385;-74
2021/03/10 00:15:04;;;;;;;19.52;11.93;;;;;;;7.71;56.28;101829.22;4930232;28;124870;-74
2021/03/10 00:17:31;;;;;;;20.20;12.60;;;;;;;7.70;56.53;101830.09;4929891;28;119294;-74
2021/03/10 00:19:59;;;;;;;19.02;12.45;;;;;;;7.73;56.69;101823.94;4913555;28;118553;-74
2021/03/10 00:22:25;;;;;;;23.02;12.98;;;;;;;7.74;56.91;101825.66;4912614;28;123820;-74
2021/03/10 00:24:52;;;;;;;21.83;13.05;;;;;;;7.75;57.05;101822.13;4912946;28;123660;-74
2021/03/10 00:27:24;;;;;;;20.40;13.68;;;;;;;7.77;57.34;101830.88;4894941;28;118584;-74
2021/03/10 00:29:59;;;;;;;18.92;12.73;;;;;;;7.80;57.14;101836.13;4930221;28;118900;-74
2021/03/10 00:32:28;;;;;;;21.42;13.70;;;;;;;7.82;57.49;101839.59;4928613;28;121937;-74
2021/03/10 00:34:56;;;;;;;22.42;13.95;;;;;;;7.86;57.36;101851.81;4929646;28;123730;-74
2021/03/10 00:37:23;;;;;;;24.92;14.63;;;;;;;7.88;57.58;101844.75;4930007;28;119206;-74
2021/03/10 00:39:51;;;;;;;21.70;14.85;;;;;;;7.91;57.67;101849.97;4930809;28;118810;-75
2021/03/10 00:42:18;;;;;;;23.92;15.55;;;;;;;7.94;57.83;101844.63;4929013;28;124076;-74
2021/03/10 00:44:45;;;;;;;24.75;15.82;;;;;;;7.96;58.12;101837.56;4928500;28;123856;-74
2021/03/10 00:47:13;;;;;;;24.77;15.75;;;;;;;8.01;57.90;101839.28;4929257;28;120398;-74
2021/03/10 00:49:41;;;;;;;23.55;14.55;;;;;;;8.04;57.82;101831.28;4930358;28;120532;-74
2021/03/10 00:52:08;;;;;;;24.63;15.63;;;;;;;8.09;57.86;101837.34;4929838;28;124431;-74
2021/03/10 00:54:35;;;;;;;22.30;15.10;;;;;;;8.12;57.99;101832.03;4927830;28;121975;-74
2021/03/10 00:57:03;;;;;;;24.33;15.60;;;;;;;8.16;57.85;101833.69;4912356;28;118294;-74
2021/03/10 00:59:29;;;;;;;25.10;14.10;;;;;;;8.19;58.15;101836.25;4930376;28;118688;-74
2021/03/10 01:01:56;;;;;;;20.85;14.15;;;;;;;8.22;57.91;101833.56;4912412;28;123408;-74
2021/03/10 01:04:23;;;;;;;22.70;14.20;;;;;;;8.25;58.08;101844.09;4929370;28;124629;-74
2021/03/10 01:06:49;;;;;;;22.63;13.88;;;;;;;8.29;57.99;101855.47;4912919;28;119288;-74
2021/03/10 01:09:17;;;;;;;23.58;13.93;;;;;;;8.31;57.86;101849.25;4928079;28;118973;-74
2021/03/10 01:11:45;;;;;;;19.77;13.30;;;;;;;8.34;57.95;101846.56;4911750;28;123871;-74
2021/03/10 01:14:13;;;;;;;21.10;13.55;;;;;;;8.37;57.72;101838.56;4928618;28;124739;-74
2021/03/10 01:16:40;;;;;;;23.17;13.38;;;;;;;8.39;57.76;101838.53;4929899;28;119782;-74
2021/03/10 01:19:07;;;;;;;21.50;13.52;;;;;;;8.40;57.51;101821.81;4911819;28;117364;-74
2021/03/10 01:21:33;;;;;;;20.42;13.55;;;;;;;8.42;57.45;101819.13;4929697;28;124979;-74
2021/03/10 01:24:00;;;;;;;23.10;14.32;;;;;;;8.41;57.49;101822.66;4925343;28;124770;-74
2021/03/10 01:26:27;;;;;;;18.95;13.98;;;;;;;8.39;57.73;101830.59;4912735;28;119373;-74
2021/03/10 01:28:53;;;;;;;22.23;13.55;;;;;;;8.37;57.68;101820.06;4928540;28;119317;-74
2021/03/10 01:31:20;;;;;;;21.38;12.73;;;;;;;8.36;57.46;101821.00;4927482;28;123257;-74
2021/03/10 01:33:47;;;;;;;19.70;13.40;;;;;;;8.34;57.36;101817.50;4928960;28;123428;-73
2021/03/10 01:36:13;;;;;;;19.88;13.60;;;;;;;8.31;57.05;101812.28;4928505;28;120199;-72
2021/03/10 01:38:40;;;;;;;20.30;13.07;;;;;;;8.27;57.31;101805.34;4927839;28;120076;-72
2021/03/10 01:41:07;;;;;;;20.83;13.38;;;;;;;8.23;57.39;101803.66;4929514;28;124808;-74
2021/03/10 01:43:33;;;;;;;22.23;14.07;;;;;;;8.19;57.10;101794.03;4926595;28;124573;-72
2021/03/10 01:46:00;;;;;;;23.50;13.05;;;;;;;8.15;57.37;101811.69;4925130;28;119855;-72
2021/03/10 01:48:27;;;;;;;25.00;13.68;;;;;;;8.12;57.25;101810.91;4927368;28;118951;-72
2021/03/10 01:50:54;;;;;;;20.90;13.02;;;;;;;8.09;57.27;101801.28;4929435;28;124783;-73
2021/03/10 01:53:21;;;;;;;19.13;12.82;;;;;;;8.05;57.24;101799.59;4928491;28;124719;-73
2021/03/10 01:55:51;;;;;;;21.70;13.18;;;;;;;8.02;57.58;101809.34;4929179;28;119136;-73
2021/03/10 01:58:18;;;;;;;21.23;12.50;;;;;;;7.99;56.99;101810.28;4911483;28;118847;-73
2021/03/10 02:00:44;;;;;;;19.23;12.82;;;;;;;7.95;57.25;101796.28;4928551;28;123842;-73
2021/03/10 02:03:11;;;;;;;19.83;13.57;;;;;;;7.91;57.41;101791.97;4922764;28;123450;-73
2021/03/10 02:05:38;;;;;;;19.52;13.38;;;;;;;7.90;57.55;101802.53;4911165;28;118610;-73
2021/03/10 02:08:18;;;;;;;20.35;13.43;;;;;;;7.86;57.83;101799.06;4928241;28;119710;-73
2021/03/10 02:11:14;;;;;;;19.38;12.63;;;;;;;7.84;57.53;101795.59;4925552;28;124282;-73
2021/03/10 02:14:02;;;;;;;18.17;12.18;;;;;;;7.83;57.88;101800.91;4926778;28;123130;-73
2021/03/10 02:17:01;;;;;;;17.70;11.77;;;;;;;7.80;57.80;101809.75;4927537;28;118392;-73
2021/03/10 02:19:31;;;;;;;18.13;11.38;;;;;;;7.78;57.41;101795.72;4922270;28;118350;-73
2021/03/10 02:22:03;;;;;;;18.38;11.45;;;;;;;7.75;57.43;101801.03;4928233;28;123446;-73
2021/03/10 02:24:48;;;;;;;15.73;11.38;;;;;;;7.72;57.25;101798.44;4927956;28;123753;-73
2021/03/10 02:27:32;;;;;;;15.43;11.13;;;;;;;7.68;57.18;101789.72;4927118;28;120667;-73
2021/03/10 02:30:08;;;;;;;17.92;11.40;;;;;;;7.64;57.17;101803.00;4909563;28;119839;-73
2021/03/10 02:32:39;;;;;;;;;;;;;;;7.60;57.08;101792.50;4924129;28;124108;-75
2021/03/10 02:35:09;;;;;;;17.58;11.20;;;;;;;7.58;57.17;101783.75;4924906;28;124897;-75
2021/03/10 02:37:43;;;;;;;17.63;10.88;;;;;;;7.55;57.80;101786.44;4928147;28;119668;-75
2021/03/10 02:40:11;;;;;;;16.65;11.30;;;;;;;7.53;57.85;101775.03;4926330;28;119386;-73
2021/03/10 02:42:39;;;;;;;19.98;12.15;;;;;;;7.53;57.77;101780.31;4925959;28;124801;-73
2021/03/10 02:45:07;;;;;;;17.63;11.45;;;;;;;7.53;57.99;101774.16;4925786;28;124227;-73
2021/03/10 02:47:37;;;;;;;17.30;11.55;;;;;;;7.54;58.26;101770.66;4928616;28;120031;-73
2021/03/10 02:50:06;;;;;;;18.92;11.18;;;;;;;7.55;58.28;101768.00;4927735;28;119245;-73
2021/03/10 02:52:34;;;;;;;17.13;11.32;;;;;;;7.56;58.27;101775.00;4926943;28;124002;-73
2021/03/10 02:55:01;;;;;;;20.23;11.55;;;;;;;7.57;58.50;101771.47;4926620;28;123855;-73
2021/03/10 02:57:29;;;;;;;17.00;11.30;;;;;;;7.59;58.40;101769.69;4928559;28;119311;-73
2021/03/10 02:59:58;;;;;;;16.38;11.32;;;;;;;7.63;58.74;101774.88;4928321;28;119291;-73
2021/03/10 03:02:27;;;;;;;18.38;12.38;;;;;;;7.64;58.45;101760.81;4908214;28;123544;-73
2021/03/10 03:04:54;;;;;;;16.23;10.73;;;;;;;7.67;58.42;101772.16;4910017;28;122009;-73
2021/03/10 03:07:20;;;;;;;16.45;10.75;;;;;;;7.70;58.40;101771.25;4926804;28;121591;-73
2021/03/10 03:09:47;;;;;;;16.00;11.27;;;;;;;7.72;58.58;101770.34;4928859;28;119305;-73
2021/03/10 03:12:15;;;;;;;16.08;11.40;;;;;;;7.75;58.74;101779.94;4925267;28;123953;-73
2021/03/10 03:14:43;;;;;;;17.60;11.65;;;;;;;7.76;58.29;101771.13;4927097;28;124832;-73
2021/03/10 03:17:11;;;;;;;17.42;10.52;;;;;;;7.77;58.55;101767.59;4909792;28;119985;-73
2021/03/10 03:19:38;;;;;;;17.63;11.27;;;;;;;7.78;58.56;101769.34;4925464;28;119991;-73
2021/03/10 03:22:06;;;;;;;16.13;11.05;;;;;;;7.77;58.53;101767.59;4927988;28;124457;-74
2021/03/10 03:24:33;;;;;;;15.75;11.18;;;;;;;7.77;58.71;101772.88;4927433;28;123871;-73
2021/03/10 03:27:02;;;;;;;15.50;10.85;;;;;;;7.78;58.63;101758.81;4910178;28;120087;-73
2021/03/10 03:29:31;;;;;;;16.52;10.68;;;;;;;7.78;58.92;101764.94;4926401;28;117801;-73
2021/03/10 03:31:57;;;;;;;15.77;10.95;;;;;;;7.79;58.90;101756.09;4910580;28;124138;-73
2021/03/10 03:34:25;;;;;;;17.90;10.73;;;;;;;7.81;58.54;101753.44;4927871;28;124865;-73
2021/03/10 03:36:52;;;;;;;16.92;11.23;;;;;;;7.82;58.54;101751.66;4927089;28;118843;-75
2021/03/10 03:39:20;;;;;;;17.42;10.85;;;;;;;7.82;58.91;101755.19;4913619;28;119682;-73
2021/03/10 03:41:50;;;;;;;18.00;11.65;;;;;;;7.83;58.59;101759.56;4929108;28;123863;-73
2021/03/10 03:44:18;;;;;;;18.35;12.05;;;;;;;7.83;58.71;101751.66;4929843;28;123980;-73
2021/03/10 03:46:45;;;;;;;17.10;11.52;;;;;;;7.82;58.79;101744.66;4913958;28;118253;-73
2021/03/10 03:49:14;;;;;;;15.45;11.15;;;;;;;7.82;58.42;101734.09;4931362;28;119400;-73
2021/03/10 03:51:40;;;;;;;16.67;11.75;;;;;;;7.84;58.63;101727.03;4930659;28;123663;-73
2021/03/10 03:54:07;;;;;;;18.83;11.85;;;;;;;7.84;58.70;101734.94;4929011;28;123453;-73
2021/03/10 03:56:33;;;;;;;17.02;11.27;;;;;;;7.86;59.00;101735.78;4930013;28;120229;-73
2021/03/10 03:59:00;;;;;;;19.15;11.70;;;;;;;7.87;59.13;101732.22;4929473;28;117963;-73
2021/03/10 04:01:27;;;;;;;18.33;11.68;;;;;;;7.90;59.07;101734.81;4930755;28;125038;-74
2021/03/10 04:03:54;;;;;;;16.52;11.73;;;;;;;7.93;58.99;101736.50;4927265;28;123712;-74
2021/03/10 04:06:20;;;;;;;18.52;12.35;;;;;;;7.95;58.92;101729.47;4930300;28;120049;-73
2021/03/10 04:08:47;;;;;;;19.63;13.00;;;;;;;7.96;58.81;101728.53;4917030;28;120063;-74
2021/03/10 04:11:15;;;;;;;19.25;12.52;;;;;;;7.96;59.10;101732.03;4930296;28;124721;-73
2021/03/10 04:13:42;;;;;;;19.35;12.52;;;;;;;7.98;58.84;101730.25;4930222;28;124097;-74
2021/03/10 04:16:09;;;;;;;18.83;12.57;;;;;;;8.00;59.14;101730.22;4927597;28;118186;-73
2021/03/10 04:18:37;;;;;;;18.20;12.38;;;;;;;8.02;58.96;101727.56;4929186;28;118473;-73
2021/03/10 04:21:05;;;;;;;21.00;12.57;;;;;;;8.04;59.15;101723.13;4928735;28;124161;-73
2021/03/10 04:23:32;;;;;;;19.40;12.85;;;;;;;8.06;58.73;101731.88;4911166;28;124193;-74
2021/03/10 04:25:59;;;;;;;18.70;13.38;;;;;;;8.09;58.79;101726.53;4929192;28;119263;-74
2021/03/10 04:28:26;;;;;;;22.15;12.82;;;;;;;8.12;58.78;101727.34;4912575;28;118378;-74
2021/03/10 04:30:53;;;;;;;19.58;12.63;;;;;;;8.15;58.98;101721.13;4912303;28;123508;-74
2021/03/10 04:33:20;;;;;;;18.35;12.90;;;;;;;8.17;58.82;101719.31;4929676;28;123659;-74
2021/03/10 04:35:46;;;;;;;20.33;13.43;;;;;;;8.19;58.71;101720.16;4929308;28;119268;-73
2021/03/10 04:38:26;;;;;;;20.75;13.18;;;;;;;8.19;58.73;101722.78;4928400;28;118877;-74
2021/03/10 04:40:53;;;;;;;23.33;13.63;;;;;;;8.21;58.74;101725.41;4929509;28;124006;-74
2021/03/10 04:43:19;;;;;;;21.05;13.55;;;;;;;8.20;58.82;101719.28;4925575;28;122919;-74
2021/03/10 04:45:46;;;;;;;19.52;13.38;;;;;;;8.20;58.91;101729.81;4910650;28;117990;-74
2021/03/10 04:48:12;;;;;;;18.85;12.85;;;;;;;8.21;58.78;101726.25;4915407;28;118366;-74
2021/03/10 04:50:39;;;;;;;19.67;13.23;;;;;;;8.22;59.02;101725.38;4929409;28;125260;-74
2021/03/10 04:53:06;;;;;;;20.85;13.57;;;;;;;8.23;58.81;101732.41;4929092;28;124072;-74
2021/03/10 04:55:32;;;;;;;18.88;12.98;;;;;;;8.25;58.57;101733.25;4912796;28;120398;-74
2021/03/10 04:57:59;;;;;;;20.63;13.13;;;;;;;8.27;59.10;101733.19;4913115;28;120233;-74
2021/03/10 05:00:26;;;;;;;17.73;12.52;;;;;;;8.26;58.74;101734.97;4912338;28;123466;-74
2021/03/10 05:02:52;;;;;;;21.23;13.13;;;;;;;8.28;58.69;101738.44;4930571;28;123760;-75
2021/03/10 05:05:19;;;;;;;20.60;13.75;;;;;;;8.28;58.96;101725.25;4928285;28;119536;-73
2021/03/10 05:07:46;;;;;;;22.73;14.18;;;;;;;8.30;58.81;101719.94;4912810;28;117759;-73
2021/03/10 05:10:13;;;;;;;21.48;13.63;;;;;;;8.29;58.76;101719.06;4928252;28;124600;-73
2021/03/10 05:12:40;;;;;;;21.55;14.25;;;;;;;8.29;58.56;101719.06;4889874;28;122533;-73
2021/03/10 05:15:08;;;;;;;22.17;14.52;;;;;;;8.29;58.76;101723.50;4911668;28;119199;-73
2021/03/10 05:17:35;;;;;;;25.02;15.90;;;;;;;8.29;58.83;101729.63;4912033;28;119030;-73
2021/03/10 05:20:05;;;;;;;27.33;15.48;;;;;;;8.31;59.25;101726.97;4911438;28;123507;-73
2021/03/10 05:22:32;;;;;;;25.33;15.85;;;;;;;8.31;59.14;101713.78;4929304;28;123684;-73
2021/03/10 05:24:59;;;;;;;27.00;15.73;;;;;;;8.31;58.96;101712.00;4912018;28;118896;-73
2021/03/10 05:27:30;;;;;;;22.38;15.18;;;;;;;8.32;59.05;101704.94;4929898;28;119175;-73
2021/03/10 05:29:58;;;;;;;26.98;16.70;;;;;;;8.31;59.21;101716.41;4911933;28;123576;-73
2021/03/10 05:32:25;;;;;;;30.08;17.20;;;;;;;8.31;59.11;101709.34;4925967;28;124762;-74
2021/03/10 05:34:52;;;;;;;27.77;16.48;;;;;;;8.31;59.35;101704.06;4910850;28;118747;-73
2021/03/10 05:37:19;;;;;;;27.83;16.70;;;;;;;8.31;59.51;101712.00;4927531;28;118925;-73
2021/03/10 05:39:46;;;;;;;28.02;17.65;;;;;;;8.33;59.44;101715.47;4925238;28;124610;-73
2021/03/10 05:42:13;;;;;;;30.67;18.52;;;;;;;8.32;59.51;101708.44;4929267;28;124017;-73
2021/03/10 05:44:39;;;;;;;34.15;18.65;;;;;;;8.33;59.18;101710.19;4910758;28;120517;-73
2021/03/10 05:47:07;;;;;;;35.40;19.08;;;;;;;8.34;59.43;101711.94;4928593;28;119697;-73
2021/03/10 05:49:33;;;;;;;34.28;19.00;;;;;;;8.35;59.47;101708.38;4910899;28;123350;-73
2021/03/10 05:52:03;;;;;;;36.53;20.88;;;;;;;8.38;59.30;101708.31;4913666;28;122684;-73
2021/03/10 05:54:31;;;;;;;40.50;23.30;;;;;;;8.42;59.37;101713.53;4927744;28;119507;-73
2021/03/10 05:57:01;;;;;;;44.50;23.95;;;;;;;8.43;59.54;101710.88;4910666;28;118336;-73
2021/03/10 05:59:28;;;;;;;45.53;26.08;;;;;;;8.44;59.51;101712.63;4927309;28;123995;-73
2021/03/10 06:01:54;;;;;;;53.58;27.98;;;;;;;8.45;59.31;101718.78;4924937;28;124482;-73
2021/03/10 06:04:24;;;;;;;59.67;31.05;;;;;;;8.45;59.48;101718.78;4928862;28;119951;-73
2021/03/10 06:06:50;;;;;;;62.03;32.25;;;;;;;8.46;59.41;101709.97;4928929;28;118855;-73
2021/03/10 06:09:35;;;;;;;62.53;33.10;;;;;;;8.47;59.47;101711.69;4927450;28;123639;-73
2021/03/10 06:12:03;;;;;;;66.68;35.67;;;;;;;8.48;60.12;101719.56;4924413;28;122071;-73
2021/03/10 06:14:31;;;;;;;63.60;34.40;;;;;;;8.49;59.72;101715.16;4926603;28;119333;-73
2021/03/10 06:17:11;;;;;;;67.15;35.83;;;;;;;8.50;59.90;101722.19;4909775;28;118984;-73
2021/03/10 06:19:45;;;;;;;63.50;34.60;;;;;;;8.51;59.80;101713.34;4927509;28;124908;-73
2021/03/10 06:22:13;;;;;;;70.93;36.95;;;;;;;8.54;59.96;101715.94;4928511;28;123754;-73
2021/03/10 06:24:40;;;;;;;72.15;36.40;;;;;;;8.56;60.11;101714.13;4927589;28;119247;-73
2021/03/10 06:27:07;;;;;;;70.95;35.35;;;;;;;8.57;60.59;101703.53;4912040;28;118873;-73
2021/03/10 06:29:34;;;;;;;72.93;36.08;;;;;;;8.59;60.00;101706.13;4926976;28;124266;-73
2021/03/10 06:32:06;;;;;;;64.25;35.25;;;;;;;8.63;60.05;101706.94;4894857;28;123196;-73
2021/03/10 06:34:44;;;;;;;71.78;35.42;;;;;;;8.63;59.80;101707.81;4908275;28;120228;-73
2021/03/10 06:37:11;;;;;;;69.95;36.58;;;;;;;8.63;60.29;101705.16;4911250;28;119547;-73
2021/03/10 06:40:11;;;;;;;68.25;36.45;;;;;;;8.63;60.25;101701.66;4926483;28;123925;-73
2021/03/10 06:42:39;;;;;;;70.72;36.00;;;;;;;8.64;60.30;101693.69;4968098;22;124356;-69
2021/03/10 06:45:07;;;;;;;75.57;36.72;;;;;;;8.67;60.37;101700.69;4950875;28;118534;-68
2021/03/10 06:47:35;;;;;;;76.22;37.22;;;;;;;8.68;60.64;101705.94;4950649;28;118638;-68
2021/03/10 06:50:03;;;;;;;71.50;36.97;;;;;;;8.70;60.57;101705.88;4951785;28;123359;-68
2021/03/10 06:52:30;;;;;;;74.10;37.13;;;;;;;8.71;60.37;101711.13;4923624;28;123231;-68
2021/03/10 06:54:59;;;;;;;74.38;38.72;;;;;;;8.73;60.59;101704.03;4947928;28;119090;-68
2021/03/10 06:57:27;;;;;;;73.72;38.47;;;;;;;8.76;60.38;101705.75;4929223;28;117930;-68
2021/03/10 06:59:55;;;;;;;68.82;37.33;;;;;;;8.77;60.43;101705.69;4931099;28;125203;-68
2021/03/10 07:02:24;;;;;;;70.03;37.72;;;;;;;8.79;60.43;101696.88;4931221;28;122941;-68
2021/03/10 07:04:53;;;;;;;67.72;38.00;;;;;;;8.80;60.65;101694.19;4949272;28;120033;-68
2021/03/10 07:07:19;;;;;;;70.65;36.58;;;;;;;8.81;60.59;101695.06;4930449;28;119440;-68
2021/03/10 07:09:46;;;;;;;69.90;37.20;;;;;;;8.82;60.40;101692.38;4944204;28;122966;-68
2021/03/10 07:12:16;;;;;;;68.65;36.65;;;;;;;8.84;60.51;101689.72;4949980;28;124870;-68
2021/03/10 07:14:43;;;;;;;67.28;37.33;;;;;;;8.85;60.49;101686.16;4933754;28;118829;-67
2021/03/10 07:17:12;;;;;;;68.18;37.53;;;;;;;8.85;60.61;101686.16;4953579;28;118956;-68
2021/03/10 07:19:40;;;;;;;67.15;37.05;;;;;;;8.87;60.46;101694.91;4934472;28;122774;-68
2021/03/10 07:22:10;;;;;;;69.53;37.40;;;;;;;8.88;60.42;101691.38;4950696;28;123808;-67
2021/03/10 07:24:48;;;;;;;69.65;37.40;;;;;;;8.89;60.45;101698.38;4933349;28;118995;-68
2021/03/10 07:27:18;;;;;;;71.03;37.40;;;;;;;8.89;60.42;101698.38;4928397;28;119828;-67
2021/03/10 07:29:45;;;;;;;64.53;36.60;;;;;;;8.92;60.66;101703.59;4934210;28;123345;-68
2021/03/10 07:32:21;;;;;;;68.72;37.20;;;;;;;8.94;60.61;101701.78;4933698;28;122637;-68
2021/03/10 07:35:03;;;;;;;67.20;37.80;;;;;;;8.95;60.36;101703.53;4931507;28;118242;-68
2021/03/10 07:37:30;;;;;;;71.63;36.75;;;;;;;8.98;60.30;101702.56;4932507;28;119115;-68
2021/03/10 07:40:10;;;;;;;63.85;37.33;;;;;;;8.97;60.35;101699.06;4952582;28;124228;-68
2021/03/10 07:42:50;;;;;;;69.13;36.47;;;;;;;8.98;60.66;101695.50;4932378;28;124024;-68
2021/03/10 07:45:18;;;;;;;64.97;36.80;;;;;;;9.00;60.65;101701.63;4949827;28;119359;-68
2021/03/10 07:47:53;;;;;;;68.78;37.83;;;;;;;9.01;60.81;101708.66;4929280;28;118783;-69
2021/03/10 07:50:20;;;;;;;64.63;37.70;;;;;;;9.03;60.60;101717.41;4947668;28;124821;-68
2021/03/10 07:52:54;;;;;;;67.63;36.85;;;;;;;9.04;60.92;101708.59;4915259;28;123734;-69
2021/03/10 07:55:21;;;;;;;66.90;37.30;;;;;;;9.08;60.60;101710.25;4930493;28;118150;-69
2021/03/10 07:57:53;;;;;;;62.35;36.03;;;;;;;9.11;60.48;101704.00;4949245;28;118644;-69
2021/03/10 08:00:31;;;;;;;66.50;36.67;;;;;;;9.14;60.49;101704.81;4949604;28;124600;-68
2021/03/10 08:02:59;;;;;;;65.30;36.78;;;;;;;9.19;60.72;101694.09;4935407;28;123493;-69
2021/03/10 08:05:27;;;;;;;67.70;37.08;;;;;;;9.22;60.64;101690.53;4950456;28;120860;-69
2021/03/10 08:08:10;;;;;;;66.30;37.38;;;;;;;9.22;60.45;101691.38;4931269;28;117897;-70
2021/03/10 08:10:41;;;;;;;63.28;35.97;;;;;;;9.26;60.49;101689.53;4949487;28;123703;-69
2021/03/10 08:13:20;;;;;;;66.22;37.25;;;;;;;9.28;60.54;101693.00;4930402;28;123164;-69
2021/03/10 08:15:47;;;;;;;66.57;37.17;;;;;;;9.30;60.61;101693.81;4930384;28;120650;-69
2021/03/10 08:18:20;;;;;;;62.00;37.45;;;;;;;9.31;60.24;101696.44;4932559;28;120696;-69
2021/03/10 08:20:47;;;;;;;63.15;37.20;;;;;;;9.34;60.61;101691.09;4948055;28;124180;-69
2021/03/10 08:23:14;;;;;;;64.88;35.75;;;;;;;9.37;60.60;101694.56;4945423;28;123950;-69
2021/03/10 08:25:40;;;;;;;64.28;37.30;;;;;;;9.40;60.33;101695.34;4940043;28;118478;-70
2021/03/10 08:28:11;;;;;;;63.50;37.63;;;;;;;9.43;60.37;101689.94;4929390;28;121486;-69
2021/03/10 08:30:39;;;;;;;66.15;37.85;;;;;;;9.46;60.60;101684.59;4948499;28;123797;-68
2021/03/10 08:33:07;;;;;;;65.93;36.88;;;;;;;9.49;60.31;101673.94;4946849;28;125763;-68
2021/03/10 08:35:34;;;;;;;60.38;35.70;;;;;;;9.51;60.56;101672.13;4932672;28;120282;-68
2021/03/10 08:38:04;;;;;;;63.38;36.65;;;;;;;9.54;60.57;101672.03;4949967;28;119133;-69
2021/03/10 08:40:34;;;;;;;58.72;36.40;;;;;;;9.60;60.19;101675.41;4929844;28;122816;-69
2021/03/10 08:43:02;;;;;;;63.90;35.80;;;;;;;9.63;60.35;101680.63;4935978;28;124726;-69
2021/03/10 08:45:33;;;;;;;60.67;34.22;;;;;;;9.64;60.18;101687.63;4948459;28;119557;-69
2021/03/10 08:48:12;;;;;;;58.25;36.03;;;;;;;9.65;60.13;101679.66;4949403;28;118872;-69
2021/03/10 08:50:47;;;;;;;61.60;35.70;;;;;;;9.71;60.49;101678.63;4946420;28;123699;-69
2021/03/10 08:53:15;;;;;;;56.65;35.20;;;;;;;9.76;59.97;101687.31;4929098;28;123736;-70
2021/03/10 08:55:46;;;;;;;59.08;35.78;;;;;;;9.80;60.07;101688.94;4915151;28;117503;-70
2021/03/10 08:58:16;;;;;;;57.90;34.47;;;;;;;9.84;60.20;101690.59;4932253;28;118220;-70
2021/03/10 09:00:46;;;;;;;58.03;35.85;;;;;;;9.88;59.93;101683.44;4924217;28;123175;-68
2021/03/10 09:03:18;;;;;;;56.58;35.00;;;;;;;9.91;60.34;101676.28;4927598;28;123831;-69
2021/03/10 09:05:49;;;;;;;57.05;34.53;;;;;;;9.97;60.13;101680.53;4947927;28;120530;-69
2021/03/10 09:08:23;;;;;;;55.17;34.33;;;;;;;10.03;60.05;101679.50;4919697;28;121624;-69
2021/03/10 09:10:57;;;;;;;61.55;34.35;;;;;;;10.10;59.81;101686.34;4948818;28;123368;-69
2021/03/10 09:13:40;;;;;;;57.45;34.08;;;;;;;10.13;59.72;101686.22;4913832;28;123829;-69
2021/03/10 09:16:09;;;;;;;57.17;34.15;;;;;;;10.15;59.67;101689.69;4928883;28;119001;-69
2021/03/10 09:18:39;;;;;;;53.28;32.95;;;;;;;10.19;59.86;101680.78;4943103;28;118405;-69
2021/03/10 09:21:06;;;;;;;58.22;33.95;;;;;;;10.23;59.57;101682.41;4932179;28;123532;-69
2021/03/10 09:23:40;;;;;;;55.08;33.15;;;;;;;10.28;59.34;101672.56;4932234;28;122079;-69
2021/03/10 09:26:08;;;;;;;59.95;34.83;;;;;;;10.33;59.31;101668.00;4932777;28;118981;-69
2021/03/10 09:28:40;;;;;;;52.80;33.70;;;;;;;10.39;59.47;101666.09;4933006;28;118240;-69
2021/03/10 09:31:14;;;;;;;55.50;34.00;;;;;;;10.47;59.32;101669.34;4931243;28;123214;-69
2021/03/10 09:33:49;;;;;;;54.03;33.42;;;;;;;10.52;59.43;101662.13;4921058;28;123236;-69
2021/03/10 09:36:23;;;;;;;52.65;31.95;;;;;;;10.59;59.21;101653.09;4929406;28;118332;-71
2021/03/10 09:38:52;;;;;;;54.70;32.83;;;;;;;10.65;59.21;101663.47;4949941;28;119858;-70
2021/03/10 09:41:28;;;;;;;52.95;32.55;;;;;;;10.75;59.33;101655.22;4917377;28;124004;-68
2021/03/10 09:44:06;;;;;;;48.22;30.83;;;;;;;10.82;58.96;101654.13;4929693;28;123015;-69
2021/03/10 09:46:44;;;;;;;52.05;32.78;;;;;;;10.88;59.11;101643.31;4930854;28;119365;-69
2021/03/10 09:49:17;;;;;;;47.28;31.67;;;;;;;10.95;58.58;101638.69;4949049;28;120010;-70
2021/03/10 09:51:48;;;;;;;52.65;31.52;;;;;;;10.99;58.85;101638.50;4948904;28;124739;-69
2021/03/10 09:54:22;;;;;;;47.05;31.23;;;;;;;11.02;58.60;101637.53;4940545;28;124123;-69
2021/03/10 09:56:54;;;;;;;49.13;31.80;;;;;;;11.08;58.49;101635.56;4915319;28;120064;-69
2021/03/10 09:59:34;;;;;;;48.17;30.95;;;;;;;11.13;58.25;101631.88;4917278;28;119078;-69
2021/03/10 10:02:08;;;;;;;51.45;30.90;;;;;;;11.18;58.18;101629.94;4931708;28;122517;-69
2021/03/10 10:04:42;;;;;;;46.97;31.60;;;;;;;11.21;58.17;101624.53;4931120;28;122947;-68
2021/03/10 10:07:12;;;;;;;44.35;30.10;;;;;;;11.26;58.08;101627.88;4929204;28;119786;-69
2021/03/10 10:09:53;;;;;;;45.65;29.70;;;;;;;11.30;57.69;101624.19;4932856;28;118181;-69
2021/03/10 10:12:48;;;;;;;48.63;30.08;;;;;;;11.32;57.96;101619.72;4933329;28;123404;-68
2021/03/10 10:15:20;;;;;;;41.97;28.63;;;;;;;11.37;57.66;101615.09;4947766;28;122976;-68
2021/03/10 10:17:50;;;;;;;46.92;28.15;;;;;;;11.42;57.46;101621.09;4940005;28;117907;-68
2021/03/10 10:20:20;;;;;;;45.55;28.15;;;;;;;11.46;57.40;101617.41;4958614;28;118396;-68
2021/03/10 10:22:47;;;;;;;40.45;26.90;;;;;;;11.50;57.25;101608.41;4931398;28;123942;-68
2021/03/10 10:25:19;;;;;;;42.47;26.45;;;;;;;11.54;57.27;101606.53;4931961;28;123379;-69
2021/03/10 10:27:49;;;;;;;41.83;26.40;;;;;;;11.57;57.02;101610.88;4932193;28;118606;-68
2021/03/10 10:30:18;;;;;;;40.50;25.70;;;;;;;11.60;56.68;101610.72;4947744;28;118400;-68
2021/03/10 10:32:50;;;;;;;38.88;26.17;;;;;;;11.62;56.52;101608.88;4915410;28;124734;-67
2021/03/10 10:35:20;;;;;;;37.78;23.40;;;;;;;11.68;56.56;101598.06;4930988;28;123676;-68
2021/03/10 10:37:47;;;;;;;39.10;23.27;;;;;;;11.74;56.37;101603.13;4918176;28;118722;-68
2021/03/10 10:40:19;;;;;;;35.67;22.80;;;;;;;11.78;56.12;101602.09;4931878;28;118332;-68
2021/03/10 10:43:03;;;;;;;39.30;24.80;;;;;;;11.83;55.88;101602.78;4930130;28;123713;-68
2021/03/10 10:45:30;;;;;;;35.83;22.92;;;;;;;11.88;55.87;101610.56;4949362;28;124436;-69
2021/03/10 10:47:56;;;;;;;32.42;21.75;;;;;;;11.92;55.41;101606.03;4933936;28;120087;-68
2021/03/10 10:50:33;;;;;;;34.47;21.20;;;;;;;11.94;55.40;101606.84;4927033;28;119247;-69
2021/03/10 10:53:04;;;;;;;33.72;20.35;;;;;;;11.97;55.08;101610.25;4922779;28;122159;-69
2021/03/10 10:55:32;;;;;;;31.77;19.63;;;;;;;12.00;54.90;101609.28;4905642;28;123276;-69
2021/03/10 10:57:59;;;;;;;32.05;19.02;;;;;;;12.04;54.81;101611.75;4930702;28;118531;-69
2021/03/10 11:00:28;;;;;;;30.40;18.92;;;;;;;12.11;54.68;101607.06;4938869;28;118831;-68
2021/03/10 11:03:02;;;;;;;27.92;18.48;;;;;;;12.17;54.45;101596.19;4937915;28;123540;-69
2021/03/10 11:05:40;;;;;;;32.50;19.85;;;;;;;12.20;53.93;101590.75;4935460;28;122957;-69
2021/03/10 11:08:10;;;;;;;28.90;17.83;;;;;;;12.22;53.57;101586.28;4940250;28;118594;-69
2021/03/10 11:10:36;;;;;;;29.55;18.83;;;;;;;12.24;53.79;101568.47;4935730;28;119412;-70
2021/03/10 11:13:06;;;;;;;27.00;18.77;;;;;;;12.29;53.91;101572.72;4922289;28;123384;-70
2021/03/10 11:15:55;;;;;;;27.98;18.92;;;;;;;12.34;53.62;101570.72;4951886;28;122901;-69
2021/03/10 11:18:33;;;;;;;28.67;17.90;;;;;;;12.41;53.58;101566.91;4922900;28;118633;-69